createdAt,value
2018-09-08T00:00:28.737Z,96.90
2018-09-08T00:02:57.189Z,97.10
2018-09-08T00:05:25.615Z,97.40
2018-09-08T00:07:54.074Z,97.20
2018-09-08T00:10:22.536Z,97.30
2018-09-08T00:12:50.956Z,97.30
2018-09-08T00:15:24.897Z,97.30
2018-09-08T00:17:58.710Z,97.30
2018-09-08T00:20:32.433Z,97.40
2018-09-08T00:23:06.215Z,97.50
2018-09-08T00:25:40.121Z,97.60
2018-09-08T00:28:13.323Z,97.60
2018-09-08T00:30:41.775Z,97.60
2018-09-08T00:33:10.198Z,97.60
2018-09-08T00:35:38.734Z,97.60
2018-09-08T00:38:07.171Z,97.60
2018-09-08T00:40:35.657Z,97.60
2018-09-08T00:43:04.099Z,97.70
2018-09-08T00:45:32.525Z,97.70
2018-09-08T00:48:00.951Z,97.70
2018-09-08T00:50:29.398Z,97.70
2018-09-08T00:52:57.848Z,97.70
2018-09-08T00:55:26.277Z,97.80
2018-09-08T00:57:54.718Z,97.80
2018-09-08T01:00:23.150Z,97.80
2018-09-08T01:02:51.565Z,97.80
2018-09-08T01:05:20.011Z,97.80
2018-09-08T01:07:48.438Z,97.80
2018-09-08T01:10:16.906Z,97.80
2018-09-08T01:12:45.398Z,97.80
2018-09-08T01:15:13.865Z,97.90
2018-09-08T01:17:42.310Z,98.00
2018-09-08T01:20:10.753Z,98.10
2018-09-08T01:22:39.205Z,98.10
2018-09-08T01:25:07.654Z,98.10
2018-09-08T01:27:36.073Z,98.10
2018-09-08T01:30:04.608Z,98.10
2018-09-08T01:32:33.058Z,98.20
2018-09-08T01:35:01.486Z,98.20
2018-09-08T01:37:29.920Z,98.20
2018-09-08T01:39:58.357Z,98.50
2018-09-08T01:42:26.857Z,98.20
2018-09-08T01:44:55.307Z,98.20
2018-09-08T01:47:23.729Z,98.20
2018-09-08T01:49:52.184Z,98.20
2018-09-08T01:52:20.637Z,98.00
2018-09-08T01:54:49.079Z,97.90
2018-09-08T01:57:17.541Z,97.80
2018-09-08T01:59:47.265Z,97.70
2018-09-08T02:02:15.699Z,97.70
2018-09-08T02:04:44.113Z,97.70
2018-09-08T02:07:12.543Z,97.70
2018-09-08T02:09:40.977Z,97.70
2018-09-08T02:12:09.505Z,97.60
2018-09-08T02:14:37.953Z,97.70
2018-09-08T02:17:06.423Z,97.60
2018-09-08T02:19:34.877Z,97.50
2018-09-08T02:22:03.301Z,97.50
2018-09-08T02:24:31.741Z,97.50
2018-09-08T02:27:00.165Z,97.60
2018-09-08T02:29:28.645Z,97.70
2018-09-08T02:31:57.085Z,97.80
2018-09-08T02:34:25.535Z,97.80
2018-09-08T02:36:53.983Z,97.90
2018-09-08T02:39:22.521Z,98.00
2018-09-08T02:41:50.922Z,98.10
2018-09-08T02:44:19.342Z,98.10
2018-09-08T02:46:47.742Z,98.10
2018-09-08T02:49:16.280Z,98.20
2018-09-08T02:51:43.590Z,98.30
2018-09-08T02:54:10.910Z,98.30
2018-09-08T02:56:38.236Z,98.30
2018-09-08T02:59:05.563Z,98.40
2018-09-08T03:01:32.897Z,98.40
2018-09-08T03:04:00.210Z,98.50
2018-09-08T03:06:27.536Z,98.60
2018-09-08T03:08:54.878Z,98.80
2018-09-08T03:11:22.198Z,98.80
2018-09-08T03:13:49.527Z,98.90
2018-09-08T03:16:16.856Z,99.20
2018-09-08T03:18:44.186Z,99.00
2018-09-08T03:21:11.505Z,99.00
2018-09-08T03:23:38.834Z,99.00
2018-09-08T03:26:06.146Z,99.00
2018-09-08T03:28:33.549Z,99.10
2018-09-08T03:31:01.718Z,99.10
2018-09-08T03:33:29.043Z,99.10
2018-09-08T03:35:56.343Z,99.20
2018-09-08T03:38:23.683Z,99.20
2018-09-08T03:40:50.999Z,99.20
2018-09-08T03:43:18.348Z,99.20
2018-09-08T03:45:45.679Z,99.20
2018-09-08T03:48:12.989Z,99.20
2018-09-08T03:50:40.321Z,99.20
2018-09-08T03:53:07.627Z,99.30
2018-09-08T03:55:34.928Z,99.30
2018-09-08T03:58:02.252Z,99.30
2018-09-08T04:00:29.547Z,99.40
2018-09-08T04:02:57.999Z,99.70
2018-09-08T04:05:26.548Z,99.40
2018-09-08T04:07:55.012Z,99.40
2018-09-08T04:10:23.447Z,99.40
2018-09-08T04:12:52.766Z,99.50
2018-09-08T04:15:21.560Z,99.40
2018-09-08T04:17:50.195Z,99.50
2018-09-08T04:20:18.626Z,99.50
2018-09-08T04:22:47.158Z,99.50
2018-09-08T04:25:21.944Z,99.50
2018-09-08T04:27:51.599Z,99.50
2018-09-08T04:30:20.874Z,99.50
2018-09-08T04:32:51.392Z,99.50
2018-09-08T04:35:20.026Z,99.50
2018-09-08T04:37:48.524Z,99.40
2018-09-08T04:40:16.978Z,99.30
2018-09-08T04:42:45.480Z,99.30
2018-09-08T04:45:15.026Z,99.30
2018-09-08T04:47:43.920Z,99.30
2018-09-08T04:50:12.550Z,99.30
2018-09-08T04:52:41.107Z,99.60
2018-09-08T04:55:09.606Z,99.30
2018-09-08T04:57:38.133Z,99.30
2018-09-08T05:00:07.502Z,99.30
2018-09-08T05:02:36.015Z,99.30
2018-09-08T05:05:04.494Z,99.30
2018-09-08T05:07:32.913Z,99.30
2018-09-08T05:10:01.403Z,99.30
2018-09-08T05:12:30.044Z,99.30
2018-09-08T05:14:58.612Z,99.10
2018-09-08T05:17:27.075Z,99.00
2018-09-08T05:19:55.601Z,98.90
2018-09-08T05:22:25.574Z,98.80
2018-09-08T05:24:54.050Z,98.80
2018-09-08T05:27:22.629Z,98.80
2018-09-08T05:29:51.119Z,98.80
2018-09-08T05:32:19.607Z,98.80
2018-09-08T05:34:48.177Z,98.80
2018-09-08T05:37:16.706Z,98.90
2018-09-08T05:39:45.212Z,98.90
2018-09-08T05:42:13.628Z,98.90
2018-09-08T05:44:42.074Z,99.00
2018-09-08T05:47:10.521Z,99.00
2018-09-08T05:49:39.243Z,99.00
2018-09-08T05:52:08.026Z,99.10
2018-09-08T05:54:36.508Z,99.00
2018-09-08T05:57:10.355Z,98.90
2018-09-08T05:59:38.966Z,98.90
2018-09-08T06:02:07.709Z,98.80
2018-09-08T06:04:36.155Z,98.70
2018-09-08T06:07:05.829Z,98.60
2018-09-08T06:09:35.198Z,98.30
2018-09-08T06:12:03.685Z,98.30
2018-09-08T06:14:32.977Z,98.00
2018-09-08T06:17:01.671Z,97.80
2018-09-08T06:19:30.146Z,97.60
2018-09-08T06:21:58.598Z,97.50
2018-09-08T06:24:27.073Z,97.80
2018-09-08T06:26:55.512Z,97.20
2018-09-08T06:29:23.976Z,96.90
2018-09-08T06:31:52.435Z,96.70
2018-09-08T06:34:20.955Z,96.50
2018-09-08T06:36:49.385Z,96.30
2018-09-08T06:39:17.832Z,96.30
2018-09-08T06:41:46.303Z,96.30
2018-09-08T06:44:14.719Z,96.40
2018-09-08T06:46:43.161Z,96.40
2018-09-08T06:49:11.592Z,96.50
2018-09-08T06:51:40.040Z,96.20
2018-09-08T06:54:08.486Z,96.00
2018-09-08T06:56:36.931Z,95.50
2018-09-08T06:59:05.426Z,95.20
2018-09-08T07:01:33.846Z,94.80
2018-09-08T07:04:02.313Z,94.40
2018-09-08T07:06:30.744Z,93.90
2018-09-08T07:08:59.186Z,94.00
2018-09-08T07:11:27.659Z,93.30
2018-09-08T07:13:56.090Z,92.40
2018-09-08T07:16:24.530Z,91.80
2018-09-08T07:18:53.016Z,90.40
2018-09-08T07:21:21.449Z,87.80
2018-09-08T07:23:49.873Z,84.80
2018-09-08T07:26:18.315Z,82.80
2018-09-08T07:28:46.787Z,83.60
2018-09-08T07:31:15.255Z,83.50
2018-09-08T07:33:43.703Z,83.60
2018-09-08T07:36:12.125Z,82.70
2018-09-08T07:38:40.609Z,82.80
2018-09-08T07:41:09.073Z,82.50
2018-09-08T07:43:37.540Z,84.20
2018-09-08T07:46:06.062Z,86.20
2018-09-08T07:48:34.526Z,86.30
2018-09-08T07:51:02.963Z,84.30
2018-09-08T07:53:31.534Z,79.20
2018-09-08T07:55:59.856Z,75.10
2018-09-08T07:58:28.307Z,72.50
2018-09-08T08:00:56.775Z,68.90
2018-09-08T08:03:25.213Z,67.40
2018-09-08T08:05:53.677Z,65.50
2018-09-08T08:08:22.163Z,61.50
2018-09-08T08:10:50.701Z,61.60
2018-09-08T08:13:19.194Z,60.20
2018-09-08T08:15:47.626Z,59.60
2018-09-08T08:18:16.042Z,57.60
2018-09-08T08:20:44.540Z,58.10
2018-09-08T08:23:13.061Z,60.90
2018-09-08T08:25:41.478Z,58.30
2018-09-08T08:28:09.962Z,56.40
2018-09-08T08:30:38.396Z,54.30
2018-09-08T08:33:06.952Z,53.50
2018-09-08T08:35:35.416Z,51.70
2018-09-08T08:38:03.865Z,50.90
2018-09-08T08:40:32.322Z,50.20
2018-09-08T08:43:00.747Z,50.60
2018-09-08T08:45:29.200Z,51.60
2018-09-08T08:47:57.661Z,51.40
2018-09-08T08:50:37.553Z,49.20
2018-09-08T08:53:17.461Z,48.70
2018-09-08T08:55:45.945Z,49.40
2018-09-08T08:58:14.381Z,49.60
2018-09-08T09:00:43.184Z,51.10
2018-09-08T09:03:11.597Z,50.80
2018-09-08T09:05:40.073Z,52.00
2018-09-08T09:08:08.519Z,50.90
2018-09-08T09:10:36.959Z,50.80
2018-09-08T09:13:05.606Z,48.20
2018-09-08T09:15:34.353Z,47.70
2018-09-08T09:18:02.435Z,50.60
2018-09-08T09:20:42.224Z,51.30
2018-09-08T09:23:22.856Z,50.80
2018-09-08T09:25:50.997Z,47.90
2018-09-08T09:28:19.449Z,47.30
2018-09-08T09:30:47.873Z,45.50
2018-09-08T09:33:16.343Z,45.10
2018-09-08T09:35:44.783Z,45.00
2018-09-08T09:38:13.247Z,43.80
2018-09-08T09:40:41.733Z,42.70
2018-09-08T09:43:10.159Z,43.70
2018-09-08T09:45:38.603Z,44.60
2018-09-08T09:48:07.065Z,46.60
2018-09-08T09:50:35.508Z,48.20
2018-09-08T09:53:03.950Z,48.40
2018-09-08T09:55:32.401Z,48.00
2018-09-08T09:58:00.869Z,49.30
2018-09-08T10:00:34.702Z,51.00
2018-09-08T10:03:07.737Z,51.00
2018-09-08T10:05:36.696Z,51.20
2018-09-08T10:08:05.424Z,52.50
2018-09-08T10:10:33.868Z,52.90
2018-09-08T10:13:02.298Z,52.90
2018-09-08T10:15:30.707Z,54.10
2018-09-08T10:17:59.173Z,54.70
2018-09-08T10:20:27.650Z,54.10
2018-09-08T10:22:56.142Z,53.50
2018-09-08T10:25:24.567Z,52.80
2018-09-08T10:27:53.068Z,51.40
2018-09-08T10:30:21.548Z,51.20
2018-09-08T10:32:50.006Z,51.80
2018-09-08T10:35:18.517Z,52.50
2018-09-08T10:37:46.980Z,52.80
2018-09-08T10:40:15.539Z,51.40
2018-09-08T10:42:43.922Z,46.60
2018-09-08T10:45:12.418Z,44.60
2018-09-08T10:47:40.895Z,45.80
2018-09-08T10:50:10.351Z,48.30
2018-09-08T10:52:41.507Z,49.70
2018-09-08T10:55:09.954Z,49.70
2018-09-08T10:57:38.441Z,51.00
2018-09-08T11:00:07.583Z,52.00
2018-09-08T11:02:36.200Z,48.00
2018-09-08T11:05:04.603Z,48.20
2018-09-08T11:07:33.149Z,48.60
2018-09-08T11:10:01.599Z,45.40
2018-09-08T11:12:30.489Z,44.20
2018-09-08T11:14:58.935Z,45.40
2018-09-08T11:17:27.369Z,43.60
2018-09-08T11:19:55.859Z,41.70
2018-09-08T11:22:24.302Z,38.00
2018-09-08T11:24:52.766Z,35.30
2018-09-08T11:27:21.230Z,34.20
2018-09-08T11:29:49.649Z,33.50
2018-09-08T11:32:18.095Z,35.80
2018-09-08T11:34:46.555Z,39.80
2018-09-08T11:37:15.028Z,39.10
2018-09-08T11:39:43.468Z,38.80
2018-09-08T11:42:11.899Z,40.10
2018-09-08T11:44:40.344Z,39.70
2018-09-08T11:47:08.805Z,39.40
2018-09-08T11:49:37.273Z,41.60
2018-09-08T11:52:05.793Z,43.90
2018-09-08T11:54:34.225Z,45.60
2018-09-08T11:57:02.667Z,46.30
2018-09-08T11:59:31.166Z,47.30
2018-09-08T12:01:59.592Z,46.30
2018-09-08T12:04:28.031Z,45.60
2018-09-08T12:06:56.501Z,46.30
2018-09-08T12:09:24.962Z,47.20
2018-09-08T12:11:53.404Z,48.40
2018-09-08T12:14:21.828Z,47.80
2018-09-08T12:16:50.261Z,48.30
2018-09-08T12:19:18.692Z,50.40
2018-09-08T12:21:47.153Z,50.80
2018-09-08T12:24:15.601Z,54.20
2018-09-08T12:26:44.094Z,54.30
2018-09-08T12:29:12.512Z,52.80
2018-09-08T12:31:40.979Z,52.90
2018-09-08T12:34:09.385Z,51.70
2018-09-08T12:36:37.829Z,51.00
2018-09-08T12:39:07.734Z,51.40
2018-09-08T12:41:36.179Z,52.10
2018-09-08T12:44:04.639Z,51.80
2018-09-08T12:46:33.088Z,52.20
2018-09-08T12:49:01.565Z,52.80
2018-09-08T12:51:30.003Z,51.80
2018-09-08T12:53:58.475Z,52.70
2018-09-08T12:56:26.910Z,52.60
2018-09-08T12:58:55.375Z,52.60
2018-09-08T13:01:23.807Z,53.70
2018-09-08T13:03:52.230Z,53.50
2018-09-08T13:06:20.675Z,54.80
2018-09-08T13:08:49.089Z,54.10
2018-09-08T13:11:17.521Z,54.10
2018-09-08T13:13:45.949Z,54.10
2018-09-08T13:16:14.404Z,55.30
2018-09-08T13:18:42.866Z,53.10
2018-09-08T13:21:11.279Z,52.40
2018-09-08T13:23:39.690Z,51.60
2018-09-08T13:26:08.143Z,50.60
2018-09-08T13:28:36.572Z,51.90
2018-09-08T13:31:05.034Z,50.50
2018-09-08T13:33:33.485Z,50.00
2018-09-08T13:36:01.898Z,48.70
2018-09-08T13:38:30.344Z,47.70
2018-09-08T13:40:58.788Z,48.10
2018-09-08T13:43:27.216Z,47.40
2018-09-08T13:45:55.658Z,48.30
2018-09-08T13:48:24.091Z,49.70
2018-09-08T13:50:52.501Z,50.40
2018-09-08T13:53:20.970Z,50.80
2018-09-08T13:55:49.434Z,50.20
2018-09-08T13:58:17.860Z,50.20
2018-09-08T14:00:46.273Z,50.70
2018-09-08T14:03:14.702Z,50.80
2018-09-08T14:05:43.206Z,51.90
2018-09-08T14:08:14.601Z,51.80
2018-09-08T14:10:43.500Z,52.20
2018-09-08T14:13:11.942Z,52.40
2018-09-08T14:15:40.404Z,51.90
2018-09-08T14:18:08.908Z,51.90
2018-09-08T14:20:37.354Z,52.30
2018-09-08T14:23:05.913Z,52.20
2018-09-08T14:25:34.349Z,52.80
2018-09-08T14:28:02.831Z,53.40
2018-09-08T14:30:31.289Z,54.00
2018-09-08T14:32:59.806Z,54.50
2018-09-08T14:35:28.496Z,55.00
2018-09-08T14:37:57.176Z,55.40
2018-09-08T14:40:25.682Z,55.30
2018-09-08T14:42:54.156Z,54.90
2018-09-08T14:45:22.849Z,55.60
2018-09-08T14:47:51.398Z,56.00
2018-09-08T14:50:19.785Z,56.30
2018-09-08T14:52:48.221Z,56.80
2018-09-08T14:55:16.647Z,56.10
2018-09-08T14:57:45.083Z,56.20
2018-09-08T15:00:14.153Z,56.90
2018-09-08T15:02:44.104Z,56.90
2018-09-08T15:05:12.570Z,57.20
2018-09-08T15:07:41.107Z,58.10
2018-09-08T15:10:09.610Z,58.00
2018-09-08T15:12:38.055Z,58.80
2018-09-08T15:15:06.761Z,58.00
2018-09-08T15:17:35.404Z,58.80
2018-09-08T15:20:03.866Z,58.80
2018-09-08T15:22:32.340Z,58.90
2018-09-08T15:25:00.773Z,59.30
2018-09-08T15:27:29.208Z,59.00
2018-09-08T15:29:57.694Z,59.90
2018-09-08T15:32:26.146Z,59.80
2018-09-08T15:34:54.694Z,60.00
2018-09-08T15:37:23.138Z,59.90
2018-09-08T15:39:51.930Z,60.40
2018-09-08T15:42:20.428Z,60.70
2018-09-08T15:44:49.068Z,61.30
2018-09-08T15:47:17.532Z,61.90
2018-09-08T15:49:45.977Z,62.60
2018-09-08T15:52:14.437Z,63.50
2018-09-08T15:54:42.938Z,63.30
2018-09-08T15:57:11.479Z,63.50
2018-09-08T15:59:39.998Z,64.40
2018-09-08T16:02:08.462Z,65.70
2018-09-08T16:04:36.959Z,65.40
2018-09-08T16:07:05.476Z,65.20
2018-09-08T16:09:33.928Z,65.80
2018-09-08T16:12:02.413Z,65.50
2018-09-08T16:14:30.950Z,65.70
2018-09-08T16:16:59.380Z,65.80
2018-09-08T16:19:28.014Z,66.60
2018-09-08T16:21:56.511Z,66.70
2018-09-08T16:24:25.002Z,66.90
2018-09-08T16:26:53.532Z,66.70
2018-09-08T16:29:22.040Z,66.80
2018-09-08T16:31:50.528Z,67.20
2018-09-08T16:34:19.000Z,67.70
2018-09-08T16:36:47.485Z,68.20
2018-09-08T16:39:15.967Z,67.80
2018-09-08T16:41:44.516Z,67.90
2018-09-08T16:44:13.045Z,67.80
2018-09-08T16:46:41.543Z,67.90
2018-09-08T16:49:10.097Z,67.80
2018-09-08T16:51:38.559Z,68.20
2018-09-08T16:54:07.091Z,68.40
2018-09-08T16:56:35.601Z,68.50
2018-09-08T16:59:04.119Z,68.20
2018-09-08T17:01:32.604Z,69.00
2018-09-08T17:04:01.089Z,68.60
2018-09-08T17:06:29.568Z,69.10
2018-09-08T17:08:58.116Z,69.90
2018-09-08T17:11:26.599Z,70.60
2018-09-08T17:13:55.118Z,70.90
2018-09-08T17:16:23.577Z,71.70
2018-09-08T17:18:52.095Z,71.90
2018-09-08T17:21:22.695Z,71.80
2018-09-08T17:23:51.230Z,71.80
2018-09-08T17:26:19.732Z,72.20
2018-09-08T17:28:48.336Z,72.20
2018-09-08T17:31:16.768Z,72.70
2018-09-08T17:33:45.246Z,73.20
2018-09-08T17:36:13.701Z,73.10
2018-09-08T17:38:42.269Z,73.40
2018-09-08T17:41:10.723Z,73.80
2018-09-08T17:43:39.178Z,74.10
2018-09-08T17:46:07.650Z,74.20
2018-09-08T17:48:36.131Z,74.80
2018-09-08T17:51:04.616Z,75.20
2018-09-08T17:53:33.083Z,75.50
2018-09-08T17:56:01.572Z,75.80
2018-09-08T17:58:30.268Z,76.10
2018-09-08T18:00:58.655Z,76.60
2018-09-08T18:03:27.136Z,77.60
2018-09-08T18:05:55.608Z,77.90
2018-09-08T18:08:24.883Z,77.70
2018-09-08T18:10:53.776Z,77.60
2018-09-08T18:13:22.698Z,78.00
2018-09-08T18:15:51.248Z,78.50
2018-09-08T18:18:20.119Z,78.60
2018-09-08T18:20:48.584Z,78.40
2018-09-08T18:23:17.079Z,78.80
2018-09-08T18:25:45.503Z,78.80
2018-09-08T18:28:14.291Z,79.00
2018-09-08T18:30:42.765Z,79.30
2018-09-08T18:33:11.227Z,78.50
2018-09-08T18:35:39.658Z,78.60
2018-09-08T18:38:08.111Z,78.30
2018-09-08T18:40:36.565Z,78.00
2018-09-08T18:43:04.991Z,77.70
2018-09-08T18:45:33.442Z,77.60
2018-09-08T18:48:01.918Z,77.70
2018-09-08T18:50:30.423Z,78.10
2018-09-08T18:52:58.909Z,78.10
2018-09-08T18:55:27.328Z,78.30
2018-09-08T18:57:55.763Z,78.50
2018-09-08T19:00:24.245Z,78.80
2018-09-08T19:02:52.680Z,79.00
2018-09-08T19:05:21.151Z,79.20
2018-09-08T19:07:49.621Z,79.90
2018-09-08T19:10:18.060Z,79.90
2018-09-08T19:12:46.504Z,80.20
2018-09-08T19:15:15.160Z,80.50
2018-09-08T19:17:44.177Z,80.90
2018-09-08T19:20:18.042Z,81.20
2018-09-08T19:22:46.492Z,81.60
2018-09-08T19:25:14.942Z,82.00
2018-09-08T19:27:43.388Z,82.40
2018-09-08T19:30:11.832Z,82.70
2018-09-08T19:32:40.268Z,83.10
2018-09-08T19:35:14.032Z,83.30
2018-09-08T19:37:42.492Z,83.60
2018-09-08T19:40:16.380Z,83.80
2018-09-08T19:42:44.926Z,83.90
2018-09-08T19:45:13.311Z,83.90
2018-09-08T19:47:47.298Z,83.90
2018-09-08T19:50:15.784Z,83.80
2018-09-08T19:52:49.510Z,83.80
2018-09-08T19:55:17.966Z,83.70
2018-09-08T19:57:51.840Z,83.80
2018-09-08T20:00:20.318Z,84.10
2018-09-08T20:02:48.797Z,84.20
2018-09-08T20:05:17.280Z,84.40
2018-09-08T20:07:45.739Z,84.50
2018-09-08T20:10:14.168Z,84.80
2018-09-08T20:12:42.593Z,84.90
2018-09-08T20:15:11.061Z,85.00
2018-09-08T20:17:40.562Z,85.30
2018-09-08T20:20:09.121Z,85.80
2018-09-08T20:22:37.596Z,85.70
2018-09-08T20:25:06.104Z,85.90
2018-09-08T20:27:34.565Z,86.20
2018-09-08T20:30:03.060Z,86.60
2018-09-08T20:32:31.520Z,87.20
2018-09-08T20:34:59.986Z,88.10
2018-09-08T20:37:28.537Z,87.90
2018-09-08T20:39:57.074Z,88.20
2018-09-08T20:42:25.485Z,88.60
2018-09-08T20:44:53.922Z,88.90
2018-09-08T20:47:22.408Z,89.20
2018-09-08T20:49:50.860Z,89.60
2018-09-08T20:52:19.273Z,89.90
2018-09-08T20:54:47.752Z,90.00
2018-09-08T20:57:16.176Z,90.20
2018-09-08T20:59:44.612Z,90.20
2018-09-08T21:02:13.057Z,90.30
2018-09-08T21:04:41.512Z,90.30
2018-09-08T21:07:10.473Z,90.40
2018-09-08T21:09:39.836Z,90.60
2018-09-08T21:12:08.565Z,90.70
2018-09-08T21:14:37.773Z,90.80
2018-09-08T21:17:06.553Z,90.80
2018-09-08T21:19:35.120Z,90.90
2018-09-08T21:22:03.596Z,90.90
2018-09-08T21:24:32.096Z,91.00
2018-09-08T21:27:00.569Z,91.00
2018-09-08T21:29:29.042Z,91.10
2018-09-08T21:31:57.501Z,91.10
2018-09-08T21:34:25.953Z,91.20
2018-09-08T21:36:54.411Z,91.30
2018-09-08T21:39:22.874Z,91.40
2018-09-08T21:41:51.396Z,91.40
2018-09-08T21:44:19.883Z,91.50
2018-09-08T21:46:48.321Z,91.50
2018-09-08T21:49:16.789Z,91.50
2018-09-08T21:51:45.239Z,91.80
2018-09-08T21:54:13.677Z,91.50
2018-09-08T21:56:42.105Z,91.40
2018-09-08T21:59:10.590Z,91.60
2018-09-08T22:01:39.063Z,91.50
2018-09-08T22:04:07.490Z,91.60
2018-09-08T22:06:35.929Z,91.60
2018-09-08T22:09:06.435Z,91.60
2018-09-08T22:11:34.859Z,91.60
2018-09-08T22:14:03.321Z,91.80
2018-09-08T22:16:31.785Z,91.80
2018-09-08T22:19:00.227Z,91.90
2018-09-08T22:21:28.725Z,92.00
2018-09-08T22:23:57.212Z,92.10
2018-09-08T22:26:25.634Z,92.20
2018-09-08T22:28:54.083Z,92.20
2018-09-08T22:31:22.531Z,92.30
2018-09-08T22:33:51.028Z,92.40
2018-09-08T22:36:19.487Z,92.50
2018-09-08T22:38:47.970Z,92.50
2018-09-08T22:41:16.412Z,92.60
2018-09-08T22:43:44.846Z,92.60
2018-09-08T22:46:13.330Z,92.60
2018-09-08T22:48:41.748Z,92.70
2018-09-08T22:51:10.174Z,92.80
2018-09-08T22:53:38.625Z,92.90
2018-09-08T22:56:07.339Z,93.00
2018-09-08T22:58:35.784Z,93.20
2018-09-08T23:01:04.238Z,93.20
2018-09-08T23:03:32.758Z,93.30
2018-09-08T23:06:01.245Z,93.30
2018-09-08T23:08:29.710Z,93.30
2018-09-08T23:10:58.151Z,93.30
2018-09-08T23:13:26.561Z,93.30
2018-09-08T23:15:55.012Z,93.40
2018-09-08T23:18:23.505Z,93.50
2018-09-08T23:20:52.005Z,93.50
2018-09-08T23:23:20.429Z,93.60
2018-09-08T23:25:48.858Z,93.70
2018-09-08T23:28:17.291Z,93.70
2018-09-08T23:30:45.740Z,93.80
2018-09-08T23:33:14.187Z,93.80
2018-09-08T23:35:42.634Z,93.80
2018-09-08T23:38:11.033Z,93.90
2018-09-08T23:40:39.481Z,93.90
2018-09-08T23:43:07.913Z,93.90
2018-09-08T23:45:36.335Z,94.00
2018-09-08T23:48:04.753Z,94.10
2018-09-08T23:50:33.244Z,94.20
2018-09-08T23:53:01.644Z,94.30
2018-09-08T23:55:30.104Z,94.40
2018-09-08T23:57:58.547Z,94.40
